Flight Track Log - Related Links

Times and Time Zones

All times are in EDT time to prevent confusion due to time zone crossing. See the ASQ4428 flight status page for this flight to view local times or setup timezone preferences in your user account.

Time Position Orientation Groundspeed Altitude Reporting Facility
EDT Latitude Longitude Course Direction KTS MPH feet Rate Location/Type
Fri 01:01:55 PM 40.6500 -74.1833 252° West 181 208 1,100  Level New York TRACON
Fri 01:02:55 PM 40.6333 -74.2500 270° West 223 257 2,700 1,947 Climbing New York TRACON
Fri 01:03:49 PM 40.6333 -74.3167 282° West 240 276 4,800 2,200 Climbing New York TRACON
Fri 01:04:55 PM 40.6500 -74.4167 270° West 240 276 7,100 2,150 Climbing New York TRACON
Fri 01:05:49 PM 40.6500 -74.5000 285° West 241 277 9,100 1,842 Climbing New York TRACON
Fri 01:06:49 PM 40.6667 -74.5833 297° West 246 283 10,600 1,319 Climbing New York TRACON
Fri 01:07:20 PM 40.6858 -74.6325 287° West 264 304 11,100 923 Climbing New York Center
Fri 01:08:20 PM 40.7042 -74.7131 288° West 292 336 12,000 1,008 Climbing New York Center
Fri 01:09:19 PM 40.7336 -74.8297 288° West 298 343 13,100 1,041 Climbing New York Center
Fri 01:10:21 PM 40.7608 -74.9436 288° West 317 365 14,100 984 Climbing New York Center
Fri 01:11:21 PM 40.7881 -75.0575 273° West 326 375 15,100 1,041 Climbing New York Center
Fri 01:12:22 PM 40.7922 -75.1675 266° West 331 381 16,200 1,220 Climbing New York Center
Fri 01:13:19 PM 40.7850 -75.3014 267° West 331 381 17,500 1,231 Climbing New York Center
Fri 01:14:19 PM 40.7803 -75.4244 258° West 337 388 18,600 1,289 Climbing New York Center
Fri 01:15:20 PM 40.7611 -75.5436 259° West 343 395 20,100 1,475 Climbing New York Center
Fri 01:16:21 PM 40.7436 -75.6603 262° West 343 395 21,600 1,488 Climbing New York Center
Fri 01:17:21 PM 40.7306 -75.7769 261° West 337 388 23,100 1,400 Climbing New York Center
Fri 01:18:21 PM 40.7172 -75.8939 257° West 331 381 24,400 1,424 Climbing New York Center
Fri 01:19:19 PM 40.6975 -76.0072 260° West 331 381 25,900 1,271 Climbing New York Center
Fri 01:20:19 PM 40.6822 -76.1183 260° West 331 381 26,900 942 Climbing New York Center
Fri 01:21:20 PM 40.6664 -76.2375 279° West 331 381 27,800 942 Climbing New York Center
Fri 01:22:20 PM 40.6797 -76.3536 281° West 324 373 28,800 942 Climbing New York Center
Fri 01:23:21 PM 40.6969 -76.4700 282° West 324 373 29,700 958 Climbing New York Center
Fri 01:24:19 PM 40.7164 -76.5867 280° West 329 379 30,700 966 Climbing New York Center
Fri 01:25:19 PM 40.7333 -76.7086 281° West 334 384 31,600 950 Climbing New York Center
Fri 01:26:19 PM 40.7519 -76.8308 280° West 339 390 32,600 992 Climbing New York Center
Fri 01:27:20 PM 40.7686 -76.9528 281° West 339 390 33,600 942 Climbing New York Center
Fri 01:28:20 PM 40.7872 -77.0750 281° West 339 390 34,500 900 Climbing New York Center
Fri 01:29:20 PM 40.8042 -77.1892 281° West 334 384 35,400 744 Climbing New York Center
Fri 01:30:21 PM 40.8206 -77.3058 282° West 334 384 36,000 303 Climbing New York Center
Fri 01:31:19 PM 40.8392 -77.4228 279° West 329 379 36,000  Level New York Center
Fri 01:32:59 PM 40.8625 -77.6178 281° West 333 383 36,000  Level Cleveland Center
Fri 01:33:59 PM 40.8828 -77.7542 280° West 357 411 36,000  Level Cleveland Center
Fri 01:34:59 PM 40.9006 -77.8908 281° West 376 433 36,000  Level Cleveland Center
Fri 01:35:59 PM 40.9206 -78.0331 279° West 383 441 36,000  Level Cleveland Center
Fri 01:36:59 PM 40.9383 -78.1781 280° West 396 456 36,000  Level Cleveland Center
Fri 01:37:59 PM 40.9581 -78.3286 279° West 408 470 36,000  Level Cleveland Center
Fri 01:38:59 PM 40.9753 -78.4736 279° West 408 470 36,000  Level Cleveland Center
Fri 01:39:59 PM 40.9925 -78.6161 279° West 408 470 36,000  Level Cleveland Center
Fri 01:40:59 PM 41.0094 -78.7586 279° West 403 464 36,000  Level Cleveland Center
Fri 01:41:59 PM 41.0261 -78.8986 279° West 398 458 36,000  Level Cleveland Center
Fri 01:42:59 PM 41.0428 -79.0386 279° West 398 458 36,000  Level Cleveland Center
Fri 01:43:59 PM 41.0592 -79.1786 278° West 393 452 36,000  Level Cleveland Center
Fri 01:44:59 PM 41.0733 -79.3217 279° West 388 447 36,000  Level Cleveland Center
Fri 01:45:59 PM 41.0894 -79.4647 280° West 388 447 36,000  Level Cleveland Center
Fri 01:46:59 PM 41.1075 -79.6047 278° West 388 447 36,000  Level Cleveland Center
Fri 01:47:59 PM 41.1231 -79.7453 276° West 388 447 36,000  Level Cleveland Center
Fri 01:48:59 PM 41.1344 -79.8911 280° West 388 447 36,000  Level Cleveland Center
Fri 01:49:59 PM 41.1539 -80.0317 277° West 388 447 36,000  Level Cleveland Center
Fri 01:50:59 PM 41.1672 -80.1722 278° West 388 447 36,000  Level Cleveland Center
Fri 01:51:59 PM 41.1822 -80.3128 278° West 388 447 36,000  Level Cleveland Center
Fri 01:52:59 PM 41.1969 -80.4589 278° West 393 452 36,000  Level Cleveland Center
Fri 01:53:59 PM 41.2117 -80.5997 277° West 393 452 36,000  Level Cleveland Center
Fri 01:54:59 PM 41.2239 -80.7406 278° West 387 445 36,000  Level Cleveland Center
Fri 01:55:59 PM 41.2383 -80.8814 278° West 387 445 36,000  Level Cleveland Center
Fri 01:56:59 PM 41.2525 -81.0222 278° West 387 445 36,000  Level Cleveland Center
Fri 01:57:59 PM 41.2664 -81.1633 277° West 387 445 36,000  Level Cleveland Center
Fri 01:58:59 PM 41.2803 -81.3153 278° West 387 445 36,000  Level Cleveland Center
Fri 01:59:59 PM 41.2939 -81.4425 276° West 387 445 36,000  Level Cleveland Center
Fri 02:00:59 PM 41.3053 -81.5836 277° West 387 445 36,000  Level Cleveland Center
Fri 02:01:59 PM 41.3186 -81.7194 266° West 387 445 36,000  Level Cleveland Center
Fri 02:02:59 PM 41.3108 -81.8603 265° West 387 445 36,000  Level Cleveland Center
Fri 02:03:59 PM 41.3008 -81.9983 264° West 381 438 36,000  Level Cleveland Center
Fri 02:04:59 PM 41.2906 -82.1389 266° West 387 445 36,000  Level Cleveland Center
Fri 02:05:59 PM 41.2825 -82.2797 266° West 387 445 36,000  Level Cleveland Center
Fri 02:06:59 PM 41.2739 -82.4314 266° West 387 445 36,000  Level Cleveland Center
Fri 02:07:59 PM 41.2672 -82.5722 272° West 387 445 36,000  Level Cleveland Center
Fri 02:08:59 PM 41.2711 -82.7106 274° West 382 440 36,000  Level Cleveland Center
Fri 02:09:59 PM 41.2789 -82.8461 274° West 382 440 36,000  Level Cleveland Center
Fri 02:10:59 PM 41.2864 -82.9844 275° West 382 440 36,000  Level Cleveland Center
Fri 02:11:59 PM 41.2958 -83.1231 276° West 382 440 36,000  Level Cleveland Center
Fri 02:12:59 PM 41.3056 -83.2533 274° West 376 433 36,000  Level Cleveland Center
Fri 02:13:59 PM 41.3128 -83.3781 269° West 376 433 36,000  Level Cleveland Center
Fri 02:14:59 PM 41.3114 -83.5164 262° West 376 433 36,000  Level Cleveland Center
Fri 02:15:59 PM 41.2975 -83.6539 263° West 377 434 36,000  Level Cleveland Center
Fri 02:16:59 PM 41.2853 -83.7914 264° West 384 442 36,000  Level Cleveland Center
Fri 02:18:56 PM 41.2636 -84.0783 262° West 369 425 36,000  Level Chicago Center
Fri 02:19:56 PM 41.2494 -84.2203 263° West 375 432 36,000  Level Chicago Center
Fri 02:20:56 PM 41.2367 -84.3594 262° West 385 443 36,000  Level Chicago Center
Fri 02:21:56 PM 41.2219 -84.5014 262° West 385 443 36,000  Level Chicago Center
Fri 02:22:56 PM 41.2069 -84.6406 263° West 390 449 36,000  Level Chicago Center
Fri 02:23:56 PM 41.1956 -84.7686 262° West 390 449 36,000  Level Chicago Center
Fri 02:24:56 PM 41.1819 -84.9047 263° West 390 449 36,000  Level Chicago Center
Fri 02:25:56 PM 41.1689 -85.0492 262° West 390 449 36,000  Level Chicago Center
Fri 02:26:56 PM 41.1533 -85.1908 264° West 390 449 36,000  Level Chicago Center
Fri 02:27:56 PM 41.1417 -85.3322 261° West 390 449 36,000  Level Chicago Center
Fri 02:28:56 PM 41.1236 -85.4767 263° West 390 449 36,000  Level Chicago Center
Fri 02:29:56 PM 41.1100 -85.6319 261° West 390 449 36,000  Level Chicago Center
Fri 02:30:56 PM 41.0936 -85.7733 261° West 395 455 36,000  Level Chicago Center
Fri 02:31:56 PM 41.0772 -85.9147 262° West 390 449 36,000  Level Chicago Center
Fri 02:32:56 PM 41.0628 -86.0589 261° West 395 455 36,000  Level Chicago Center
Fri 02:33:56 PM 41.0458 -86.2000 262° West 395 455 36,000  Level Chicago Center
Fri 02:34:56 PM 41.0311 -86.3439 259° West 395 455 36,000  Level Chicago Center
Fri 02:35:56 PM 41.0133 -86.4631 263° West 385 443 36,000  Level Chicago Center
Fri 02:36:56 PM 41.0000 -86.6042 261° West 385 443 36,000  Level Chicago Center
Fri 02:37:56 PM 40.9825 -86.7478 261° West 395 455 36,000  Level Chicago Center
Fri 02:38:56 PM 40.9647 -86.8889 261° West 395 455 36,000  Level Chicago Center
Fri 02:39:56 PM 40.9469 -87.0297 261° West 395 455 36,000  Level Chicago Center
Fri 02:40:56 PM 40.9308 -87.1706 260° West 395 455 36,000  Level Chicago Center
Fri 02:41:56 PM 40.9128 -87.3111 260° West 395 455 36,000  Level Chicago Center
Fri 02:42:56 PM 40.8942 -87.4492 261° West 395 455 36,000  Level Chicago Center
Fri 02:43:56 PM 40.8778 -87.5925 260° West 395 455 36,000  Level Chicago Center
Fri 02:44:56 PM 40.8589 -87.7328 260° West 390 449 36,000  Level Chicago Center
Fri 02:45:56 PM 40.8400 -87.8761 261° West 390 449 36,000  Level Chicago Center
Fri 02:46:56 PM 40.8231 -88.0192 260° West 390 449 36,000  Level Chicago Center
Fri 02:47:56 PM 40.8039 -88.1622 260° West 390 449 36,000  Level Chicago Center
Fri 02:48:56 PM 40.7844 -88.3053 260° West 395 455 36,000  Level Chicago Center
Fri 02:49:56 PM 40.7647 -88.4453 261° West 395 455 36,000  Level Chicago Center
Fri 02:50:56 PM 40.7469 -88.5881 260° West 395 455 36,000  Level Chicago Center
Fri 02:51:56 PM 40.7269 -88.7336 260° West 395 455 36,000  Level Chicago Center
Fri 02:52:56 PM 40.7089 -88.8706 259° West 395 455 36,000  Level Chicago Center
Fri 02:53:56 PM 40.6886 -89.0131 259° West 395 455 36,000  Level Chicago Center
Fri 02:54:56 PM 40.6681 -89.1583 260° West 400 460 36,000  Level Chicago Center
Fri 02:55:56 PM 40.6475 -89.3061 259° West 405 466 36,000  Level Chicago Center
Fri 02:56:56 PM 40.6267 -89.4483 260° West 405 466 36,000  Level Chicago Center
Fri 02:57:56 PM 40.6056 -89.6042 259° West 416 479 36,000  Level Chicago Center
Fri 02:58:56 PM 40.5842 -89.7464 258° West 421 484 36,000  Level Chicago Center
Fri 02:59:56 PM 40.5606 -89.8911 261° West 416 479 36,000  Level Chicago Center
Fri 03:00:56 PM 40.5433 -90.0383 259° West 410 472 36,000  Level Chicago Center
Fri 03:03:00 PM 40.4964 -90.3461 260° West 436 502 36,000  Level Kansas City Center
Fri 03:04:00 PM 40.4764 -90.4917 258° West 426 490 36,000  Level Kansas City Center
Fri 03:05:00 PM 40.4519 -90.6378 259° West 416 479 36,000  Level Kansas City Center
Fri 03:06:00 PM 40.4294 -90.7833 259° West 411 473 36,000  Level Kansas City Center
Fri 03:07:00 PM 40.4069 -90.9317 259° West 411 473 36,000  Level Kansas City Center
Fri 03:08:00 PM 40.3842 -91.0800 258° West 411 473 36,000  Level Kansas City Center
Fri 03:09:00 PM 40.3611 -91.2253 258° West 411 473 36,000  Level Kansas City Center
Fri 03:10:00 PM 40.3342 -91.3844 258° West 411 473 36,000 -100 Level Kansas City Center
Fri 03:11:00 PM 40.3108 -91.5325 258° West 411 473 35,800 -1,000 Descending Kansas City Center
Fri 03:12:00 PM 40.2872 -91.6803 257° West 411 473 34,000 -1,950 Descending Kansas City Center
Fri 03:13:00 PM 40.2617 -91.8281 258° West 411 473 31,900 -1,850 Descending Kansas City Center
Fri 03:14:00 PM 40.2378 -91.9811 257° West 417 480 30,300 -950 Descending Kansas City Center
Fri 03:15:00 PM 40.2117 -92.1317 257° West 422 486 30,000 -150 Descending Kansas City Center
Fri 03:16:00 PM 40.1856 -92.2844 258° West 432 497 30,000  Level Kansas City Center
Fri 03:17:00 PM 40.1592 -92.4400 256° West 438 504 30,000 -550 Level Kansas City Center
Fri 03:18:00 PM 40.1303 -92.5931 244° Southwest 432 497 28,900 -1,100 Descending Kansas City Center
Fri 03:19:00 PM 40.0822 -92.7217 244° Southwest 432 497 27,800 -1,050 Descending Kansas City Center
Fri 03:20:00 PM 40.0281 -92.8667 243° Southwest 442 509 26,800 -1,350 Descending Kansas City Center
Fri 03:21:00 PM 39.9636 -93.0306 243° Southwest 460 529 25,100 -1,500 Descending Kansas City Center
Fri 03:22:00 PM 39.9092 -93.1725 243° Southwest 455 524 23,800 -1,800 Descending Kansas City Center
Fri 03:23:00 PM 39.8564 -93.3058 243° Southwest 444 511 21,500 -2,300 Descending Kansas City Center
Fri 03:24:00 PM 39.8094 -93.4281 241° Southwest 416 479 19,200 -2,400 Descending Kansas City Center
Fri 03:25:00 PM 39.7583 -93.5478 243° Southwest 389 448 16,700 -2,200 Descending Kansas City Center
Fri 03:26:00 PM 39.7175 -93.6536 244° Southwest 363 418 14,800 -1,850 Descending Kansas City Center
Fri 03:27:00 PM 39.6786 -93.7564 242° Southwest 343 395 13,000 -1,600 Descending Kansas City Center
Fri 03:28:00 PM 39.6375 -93.8567 237° Southwest 335 386 11,600 -1,550 Descending Kansas City Center
Fri 03:29:00 PM 39.5900 -93.9511 237° Southwest 299 344 9,900 -1,550 Descending Kansas City Center
Fri 03:30:00 PM 39.5489 -94.0322 249° West 281 323 8,500 -1,400 Descending Kansas City Center
Fri 03:31:00 PM 39.5261 -94.1106 259° West 274 315 7,100 -750 Descending Kansas City Center
Fri 03:32:00 PM 39.5119 -94.2047 261° West 264 304 7,000 -50 Descending Kansas City Center
Fri 03:33:00 PM 39.4994 -94.3097 262° West 269 310 7,000  Level Kansas City Center
Fri 03:34:00 PM 39.4892 -94.4039 261° West 274 315 7,000 -550 Level Kansas City Center
Fri 03:35:00 PM 39.4789 -94.4872 262° West 274 315 5,900 -1,250 Descending Kansas City Center
Fri 03:36:00 PM 39.4683 -94.5786 244° Southwest 274 315 4,500 -1,400 Descending Kansas City Center
Fri 03:37:00 PM 39.4372 -94.6619 194° South 249 287 3,100 -1,050 Descending Kansas City Center
Fri 03:38:00 PM 39.3786 -94.6806 191° South 211 243 2,400 -700 Descending Kansas City Center
Fri 03:39:00 PM 39.3369 -94.6911 195° South 190 219 1,700 -700 Descending Kansas City Center
Fri 03:40:00 PM 39.2911 -94.7069 195° South 152 175 1,000 -700 Descending Kansas City Center

Login

Don't have an account? Register now (free) for customized features, flight alerts, and more!